sensor_id;sensor_type;location;lat;lon;timestamp;pressure;altitude;pressure_sealevel;temperature;humidity
62634;BME280;48704;50.534;6.442;2023-05-23T00:01:04;95719.72;;;13.15;100.00
62634;BME280;48704;50.534;6.442;2023-05-23T00:03:32;95719.56;;;12.78;100.00
62634;BME280;48704;50.534;6.442;2023-05-23T00:05:58;95720.69;;;12.86;100.00
62634;BME280;48704;50.534;6.442;2023-05-23T00:08:24;95722.97;;;12.88;100.00
62634;BME280;48704;50.534;6.442;2023-05-23T00:10:49;95723.97;;;12.85;100.00
62634;BME280;48704;50.534;6.442;2023-05-23T00:13:15;95724.94;;;12.61;100.00
62634;BME280;48704;50.534;6.442;2023-05-23T00:15:41;95719.75;;;12.54;100.00
62634;BME280;48704;50.534;6.442;2023-05-23T00:18:07;95720.44;;;12.69;100.00
62634;BME280;48704;50.534;6.442;2023-05-23T00:20:33;95722.19;;;12.67;100.00
62634;BME280;48704;50.534;6.442;2023-05-23T00:23:00;95715.22;;;12.77;100.00
62634;BME280;48704;50.534;6.442;2023-05-23T00:25:27;95717.81;;;12.60;100.00
62634;BME280;48704;50.534;6.442;2023-05-23T00:27:58;95728.75;;;12.44;100.00
62634;BME280;48704;50.534;6.442;2023-05-23T00:30:23;95720.84;;;12.62;100.00
62634;BME280;48704;50.534;6.442;2023-05-23T00:32:49;95728.06;;;12.49;100.00
62634;BME280;48704;50.534;6.442;2023-05-23T00:35:14;95728.25;;;12.45;100.00
62634;BME280;48704;50.534;6.442;2023-05-23T00:37:40;95729.13;;;12.16;100.00
62634;BME280;48704;50.534;6.442;2023-05-23T00:40:06;95731.47;;;12.38;100.00
62634;BME280;48704;50.534;6.442;2023-05-23T00:42:32;95733.97;;;12.36;100.00
62634;BME280;48704;50.534;6.442;2023-05-23T00:44:57;95733.69;;;12.34;100.00
62634;BME280;48704;50.534;6.442;2023-05-23T00:47:23;95735.59;;;12.43;100.00
62634;BME280;48704;50.534;6.442;2023-05-23T00:49:48;95730.09;;;12.48;100.00
62634;BME280;48704;50.534;6.442;2023-05-23T00:52:14;95730.94;;;12.54;100.00
62634;BME280;48704;50.534;6.442;2023-05-23T00:54:39;95729.53;;;12.64;100.00
62634;BME280;48704;50.534;6.442;2023-05-23T00:57:04;95717.25;;;12.56;100.00
62634;BME280;48704;50.534;6.442;2023-05-23T00:59:31;95728.56;;;12.67;100.00
62634;BME280;48704;50.534;6.442;2023-05-23T01:01:57;95732.41;;;12.50;100.00
62634;BME280;48704;50.534;6.442;2023-05-23T01:04:24;95733.38;;;12.47;100.00
62634;BME280;48704;50.534;6.442;2023-05-23T01:06:53;95720.72;;;12.51;100.00
62634;BME280;48704;50.534;6.442;2023-05-23T01:09:19;95723.47;;;12.31;100.00
62634;BME280;48704;50.534;6.442;2023-05-23T01:12:02;95707.66;;;12.43;100.00
62634;BME280;48704;50.534;6.442;2023-05-23T01:14:40;95710.94;;;12.41;100.00
62634;BME280;48704;50.534;6.442;2023-05-23T01:17:16;95702.91;;;12.49;100.00
62634;BME280;48704;50.534;6.442;2023-05-23T01:22:32;95700.16;;;12.34;100.00
62634;BME280;48704;50.534;6.442;2023-05-23T01:27:52;95707.16;;;12.09;100.00
62634;BME280;48704;50.534;6.442;2023-05-23T01:30:19;95704.19;;;12.13;100.00
62634;BME280;48704;50.534;6.442;2023-05-23T01:32:46;95711.81;;;11.97;100.00
62634;BME280;48704;50.534;6.442;2023-05-23T01:35:14;95702.50;;;11.86;100.00
62634;BME280;48704;50.534;6.442;2023-05-23T01:37:44;95703.31;;;12.07;100.00
62634;BME280;48704;50.534;6.442;2023-05-23T01:40:10;95707.16;;;12.24;100.00
62634;BME280;48704;50.534;6.442;2023-05-23T01:42:36;95709.47;;;12.11;100.00
62634;BME280;48704;50.534;6.442;2023-05-23T01:45:01;95715.84;;;11.96;100.00
62634;BME280;48704;50.534;6.442;2023-05-23T01:47:26;95698.03;;;12.09;100.00
62634;BME280;48704;50.534;6.442;2023-05-23T01:49:52;95708.31;;;12.17;100.00
62634;BME280;48704;50.534;6.442;2023-05-23T01:52:20;95712.56;;;12.13;100.00
62634;BME280;48704;50.534;6.442;2023-05-23T01:54:45;95709.09;;;12.18;100.00
62634;BME280;48704;50.534;6.442;2023-05-23T01:57:13;95710.44;;;12.08;100.00
62634;BME280;48704;50.534;6.442;2023-05-23T01:59:39;95710.66;;;12.04;100.00
62634;BME280;48704;50.534;6.442;2023-05-23T02:02:05;95700.81;;;12.09;100.00
62634;BME280;48704;50.534;6.442;2023-05-23T02:04:30;95716.44;;;12.00;100.00
62634;BME280;48704;50.534;6.442;2023-05-23T02:06:56;95718.44;;;12.15;100.00
62634;BME280;48704;50.534;6.442;2023-05-23T02:09:21;95717.41;;;11.97;100.00
62634;BME280;48704;50.534;6.442;2023-05-23T02:11:46;95722.69;;;11.95;100.00
62634;BME280;48704;50.534;6.442;2023-05-23T02:14:11;95723.09;;;11.88;100.00
62634;BME280;48704;50.534;6.442;2023-05-23T02:16:37;95721.66;;;11.78;100.00
62634;BME280;48704;50.534;6.442;2023-05-23T02:19:03;95726.44;;;11.92;100.00
62634;BME280;48704;50.534;6.442;2023-05-23T02:21:28;95731.06;;;11.95;100.00
62634;BME280;48704;50.534;6.442;2023-05-23T02:23:53;95730.50;;;11.91;100.00
62634;BME280;48704;50.534;6.442;2023-05-23T02:26:19;95738.41;;;11.78;100.00
62634;BME280;48704;50.534;6.442;2023-05-23T02:28:44;95736.56;;;11.75;100.00
62634;BME280;48704;50.534;6.442;2023-05-23T02:31:10;95738.03;;;11.85;100.00
62634;BME280;48704;50.534;6.442;2023-05-23T02:33:35;95738.00;;;11.56;100.00
62634;BME280;48704;50.534;6.442;2023-05-23T02:36:00;95744.16;;;11.60;100.00
62634;BME280;48704;50.534;6.442;2023-05-23T02:38:26;95746.84;;;11.39;100.00
62634;BME280;48704;50.534;6.442;2023-05-23T02:40:51;95750.97;;;11.59;100.00
62634;BME280;48704;50.534;6.442;2023-05-23T02:43:18;95751.28;;;11.61;100.00
62634;BME280;48704;50.534;6.442;2023-05-23T02:45:43;95755.69;;;11.53;100.00
62634;BME280;48704;50.534;6.442;2023-05-23T02:48:09;95756.03;;;11.16;100.00
62634;BME280;48704;50.534;6.442;2023-05-23T02:50:36;95766.97;;;11.05;100.00
62634;BME280;48704;50.534;6.442;2023-05-23T02:53:01;95764.09;;;11.14;100.00
62634;BME280;48704;50.534;6.442;2023-05-23T02:55:26;95752.16;;;10.99;100.00
62634;BME280;48704;50.534;6.442;2023-05-23T02:57:52;95767.16;;;11.01;100.00
62634;BME280;48704;50.534;6.442;2023-05-23T03:00:18;95765.44;;;11.04;100.00
62634;BME280;48704;50.534;6.442;2023-05-23T03:02:43;95768.00;;;10.93;100.00
62634;BME280;48704;50.534;6.442;2023-05-23T03:05:09;95765.88;;;10.64;100.00
62634;BME280;48704;50.534;6.442;2023-05-23T03:07:34;95772.69;;;10.87;100.00
62634;BME280;48704;50.534;6.442;2023-05-23T03:10:00;95772.47;;;10.76;100.00
62634;BME280;48704;50.534;6.442;2023-05-23T03:12:27;95775.66;;;10.59;100.00
62634;BME280;48704;50.534;6.442;2023-05-23T03:14:53;95781.41;;;10.56;100.00
62634;BME280;48704;50.534;6.442;2023-05-23T03:17:18;95784.44;;;10.67;100.00
62634;BME280;48704;50.534;6.442;2023-05-23T03:19:43;95783.88;;;10.78;100.00
62634;BME280;48704;50.534;6.442;2023-05-23T03:22:09;95785.00;;;10.47;100.00
62634;BME280;48704;50.534;6.442;2023-05-23T03:24:34;95782.78;;;10.60;100.00
62634;BME280;48704;50.534;6.442;2023-05-23T03:26:59;95781.94;;;10.93;100.00
62634;BME280;48704;50.534;6.442;2023-05-23T03:29:26;95782.59;;;10.64;100.00
62634;BME280;48704;50.534;6.442;2023-05-23T03:31:51;95783.78;;;10.72;100.00
62634;BME280;48704;50.534;6.442;2023-05-23T03:34:16;95784.19;;;10.80;100.00
62634;BME280;48704;50.534;6.442;2023-05-23T03:36:42;95785.16;;;10.77;100.00
62634;BME280;48704;50.534;6.442;2023-05-23T03:39:07;95784.88;;;10.75;100.00
62634;BME280;48704;50.534;6.442;2023-05-23T03:41:32;95786.75;;;10.68;100.00
62634;BME280;48704;50.534;6.442;2023-05-23T03:43:58;95779.38;;;10.80;100.00
62634;BME280;48704;50.534;6.442;2023-05-23T03:46:24;95790.72;;;10.77;100.00
62634;BME280;48704;50.534;6.442;2023-05-23T03:48:50;95775.53;;;10.78;100.00
62634;BME280;48704;50.534;6.442;2023-05-23T03:51:15;95801.03;;;10.85;100.00
62634;BME280;48704;50.534;6.442;2023-05-23T03:53:40;95790.19;;;10.63;100.00
62634;BME280;48704;50.534;6.442;2023-05-23T03:56:06;95798.06;;;10.65;100.00
62634;BME280;48704;50.534;6.442;2023-05-23T03:58:31;95795.28;;;10.65;100.00
62634;BME280;48704;50.534;6.442;2023-05-23T04:00:56;95800.53;;;10.39;100.00
62634;BME280;48704;50.534;6.442;2023-05-23T04:03:22;95809.53;;;10.67;100.00
62634;BME280;48704;50.534;6.442;2023-05-23T04:05:47;95802.41;;;10.33;100.00
62634;BME280;48704;50.534;6.442;2023-05-23T04:08:13;95795.81;;;10.21;100.00
62634;BME280;48704;50.534;6.442;2023-05-23T04:10:38;95799.97;;;10.26;100.00
62634;BME280;48704;50.534;6.442;2023-05-23T04:13:03;95796.91;;;10.48;100.00
62634;BME280;48704;50.534;6.442;2023-05-23T04:15:29;95794.53;;;10.31;100.00
62634;BME280;48704;50.534;6.442;2023-05-23T04:17:54;95799.56;;;10.42;100.00
62634;BME280;48704;50.534;6.442;2023-05-23T04:20:20;95799.78;;;10.38;100.00
62634;BME280;48704;50.534;6.442;2023-05-23T04:22:46;95806.47;;;10.56;100.00
62634;BME280;48704;50.534;6.442;2023-05-23T04:25:11;95802.44;;;10.15;100.00
62634;BME280;48704;50.534;6.442;2023-05-23T04:27:37;95801.84;;;10.20;100.00
62634;BME280;48704;50.534;6.442;2023-05-23T04:30:05;95805.06;;;10.27;100.00
62634;BME280;48704;50.534;6.442;2023-05-23T04:32:31;95807.34;;;10.38;100.00
62634;BME280;48704;50.534;6.442;2023-05-23T04:34:56;95810.31;;;10.34;100.00
62634;BME280;48704;50.534;6.442;2023-05-23T04:37:22;95808.31;;;10.26;100.00
62634;BME280;48704;50.534;6.442;2023-05-23T04:39:50;95811.09;;;10.26;100.00
62634;BME280;48704;50.534;6.442;2023-05-23T04:42:16;95814.53;;;10.21;100.00
62634;BME280;48704;50.534;6.442;2023-05-23T04:44:41;95806.19;;;10.12;100.00
62634;BME280;48704;50.534;6.442;2023-05-23T04:47:07;95802.41;;;10.33;100.00
62634;BME280;48704;50.534;6.442;2023-05-23T04:49:35;95819.50;;;10.07;100.00
62634;BME280;48704;50.534;6.442;2023-05-23T04:52:00;95814.56;;;10.02;100.00
62634;BME280;48704;50.534;6.442;2023-05-23T04:54:26;95811.19;;;9.98;100.00
62634;BME280;48704;50.534;6.442;2023-05-23T04:56:51;95822.66;;;9.91;100.00
62634;BME280;48704;50.534;6.442;2023-05-23T04:59:16;95823.09;;;9.99;100.00
62634;BME280;48704;50.534;6.442;2023-05-23T05:01:41;95818.28;;;9.99;100.00
62634;BME280;48704;50.534;6.442;2023-05-23T05:04:07;95818.59;;;10.01;100.00
62634;BME280;48704;50.534;6.442;2023-05-23T05:06:32;95829.75;;;9.92;100.00
62634;BME280;48704;50.534;6.442;2023-05-23T05:08:58;95832.16;;;10.09;100.00
62634;BME280;48704;50.534;6.442;2023-05-23T05:11:24;95831.59;;;9.95;100.00
62634;BME280;48704;50.534;6.442;2023-05-23T05:13:51;95827.22;;;10.13;100.00
62634;BME280;48704;50.534;6.442;2023-05-23T05:16:16;95828.22;;;9.91;100.00
62634;BME280;48704;50.534;6.442;2023-05-23T05:18:41;95836.88;;;9.84;100.00
62634;BME280;48704;50.534;6.442;2023-05-23T05:21:06;95828.22;;;9.91;100.00
62634;BME280;48704;50.534;6.442;2023-05-23T05:23:32;95824.44;;;10.03;100.00
62634;BME280;48704;50.534;6.442;2023-05-23T05:25:57;95820.41;;;10.04;100.00
62634;BME280;48704;50.534;6.442;2023-05-23T05:28:23;95829.38;;;10.18;100.00
62634;BME280;48704;50.534;6.442;2023-05-23T05:30:48;95821.66;;;10.22;100.00
62634;BME280;48704;50.534;6.442;2023-05-23T05:33:18;95825.63;;;10.39;100.00
62634;BME280;48704;50.534;6.442;2023-05-23T05:35:44;95832.44;;;10.38;100.00
62634;BME280;48704;50.534;6.442;2023-05-23T05:38:09;95829.66;;;10.29;100.00
62634;BME280;48704;50.534;6.442;2023-05-23T05:40:35;95821.78;;;10.27;100.00
62634;BME280;48704;50.534;6.442;2023-05-23T05:43:00;95836.09;;;10.44;100.00
62634;BME280;48704;50.534;6.442;2023-05-23T05:45:25;95829.28;;;10.45;100.00
62634;BME280;48704;50.534;6.442;2023-05-23T05:47:51;95840.91;;;10.77;100.00
62634;BME280;48704;50.534;6.442;2023-05-23T05:50:16;95842.25;;;10.48;100.00
62634;BME280;48704;50.534;6.442;2023-05-23T05:52:41;95840.00;;;10.70;100.00
62634;BME280;48704;50.534;6.442;2023-05-23T05:55:08;95835.28;;;10.53;100.00
62634;BME280;48704;50.534;6.442;2023-05-23T05:57:38;95839.56;;;10.30;100.00
62634;BME280;48704;50.534;6.442;2023-05-23T06:00:09;95845.66;;;10.52;100.00
62634;BME280;48704;50.534;6.442;2023-05-23T06:02:40;95845.06;;;10.48;100.00
62634;BME280;48704;50.534;6.442;2023-05-23T06:05:07;95845.69;;;10.43;100.00
62634;BME280;48704;50.534;6.442;2023-05-23T06:07:33;95847.41;;;10.41;100.00
62634;BME280;48704;50.534;6.442;2023-05-23T06:09:59;95852.41;;;10.36;100.00
62634;BME280;48704;50.534;6.442;2023-05-23T06:12:25;95858.38;;;10.44;100.00
62634;BME280;48704;50.534;6.442;2023-05-23T06:14:50;95846.63;;;10.40;100.00
62634;BME280;48704;50.534;6.442;2023-05-23T06:17:15;95850.38;;;10.37;100.00
62634;BME280;48704;50.534;6.442;2023-05-23T06:19:41;95851.00;;;10.32;100.00
62634;BME280;48704;50.534;6.442;2023-05-23T06:22:06;95852.81;;;10.44;100.00
62634;BME280;48704;50.534;6.442;2023-05-23T06:24:31;95856.59;;;10.32;100.00
62634;BME280;48704;50.534;6.442;2023-05-23T06:26:57;95865.56;;;10.27;100.00
62634;BME280;48704;50.534;6.442;2023-05-23T06:29:23;95865.91;;;10.20;100.00
62634;BME280;48704;50.534;6.442;2023-05-23T06:31:48;95863.13;;;10.20;100.00
62634;BME280;48704;50.534;6.442;2023-05-23T06:34:15;95865.25;;;10.16;100.00
62634;BME280;48704;50.534;6.442;2023-05-23T06:36:40;95863.66;;;10.42;100.00
62634;BME280;48704;50.534;6.442;2023-05-23T06:39:07;95859.75;;;10.49;100.00
62634;BME280;48704;50.534;6.442;2023-05-23T06:41:34;95864.53;;;10.57;100.00
62634;BME280;48704;50.534;6.442;2023-05-23T06:43:59;95866.50;;;10.66;100.00
62634;BME280;48704;50.534;6.442;2023-05-23T06:46:24;95870.47;;;10.41;100.00
62634;BME280;48704;50.534;6.442;2023-05-23T06:48:50;95871.13;;;10.27;100.00
62634;BME280;48704;50.534;6.442;2023-05-23T06:51:15;95878.25;;;10.10;100.00
62634;BME280;48704;50.534;6.442;2023-05-23T06:53:40;95880.75;;;10.07;100.00
62634;BME280;48704;50.534;6.442;2023-05-23T06:56:05;95880.16;;;9.94;100.00
62634;BME280;48704;50.534;6.442;2023-05-23T06:58:31;95883.22;;;10.05;100.00
62634;BME280;48704;50.534;6.442;2023-05-23T07:00:56;95883.81;;;10.19;100.00
62634;BME280;48704;50.534;6.442;2023-05-23T07:03:21;95888.53;;;9.94;100.00
62634;BME280;48704;50.534;6.442;2023-05-23T07:05:47;95886.34;;;9.98;100.00
62634;BME280;48704;50.534;6.442;2023-05-23T07:08:12;95878.00;;;9.98;100.00
62634;BME280;48704;50.534;6.442;2023-05-23T07:10:37;95888.78;;;10.15;100.00
62634;BME280;48704;50.534;6.442;2023-05-23T07:13:05;95888.63;;;10.09;100.00
62634;BME280;48704;50.534;6.442;2023-05-23T07:15:30;95889.56;;;10.06;100.00
62634;BME280;48704;50.534;6.442;2023-05-23T07:17:55;95886.63;;;10.10;100.00
62634;BME280;48704;50.534;6.442;2023-05-23T07:20:21;95883.53;;;10.26;100.00
62634;BME280;48704;50.534;6.442;2023-05-23T07:22:46;95887.69;;;10.12;100.00
62634;BME280;48704;50.534;6.442;2023-05-23T07:25:11;95890.94;;;10.29;100.00
62634;BME280;48704;50.534;6.442;2023-05-23T07:27:37;95890.31;;;10.34;100.00
62634;BME280;48704;50.534;6.442;2023-05-23T07:30:02;95896.22;;;10.09;100.00
62634;BME280;48704;50.534;6.442;2023-05-23T07:32:29;95898.53;;;10.19;100.00
62634;BME280;48704;50.534;6.442;2023-05-23T07:34:54;95892.09;;;10.55;100.00
62634;BME280;48704;50.534;6.442;2023-05-23T07:37:19;95894.06;;;10.22;100.00
62634;BME280;48704;50.534;6.442;2023-05-23T07:39:45;95881.59;;;10.41;100.00
62634;BME280;48704;50.534;6.442;2023-05-23T07:42:10;95898.59;;;10.52;100.00
62634;BME280;48704;50.534;6.442;2023-05-23T07:44:35;95892.09;;;10.55;100.00
62634;BME280;48704;50.534;6.442;2023-05-23T07:47:02;95896.69;;;10.67;100.00
62634;BME280;48704;50.534;6.442;2023-05-23T07:49:28;95900.44;;;10.88;100.00
62634;BME280;48704;50.534;6.442;2023-05-23T07:51:54;95904.25;;;10.34;100.00
62634;BME280;48704;50.534;6.442;2023-05-23T07:54:19;95910.13;;;10.27;100.00
62634;BME280;48704;50.534;6.442;2023-05-23T07:56:44;95908.16;;;10.60;100.00
62634;BME280;48704;50.534;6.442;2023-05-23T07:59:10;95912.81;;;10.63;100.00
62634;BME280;48704;50.534;6.442;2023-05-23T08:01:36;95910.06;;;10.45;100.00
62634;BME280;48704;50.534;6.442;2023-05-23T08:04:01;95918.94;;;10.77;100.00
62634;BME280;48704;50.534;6.442;2023-05-23T08:06:27;95920.38;;;10.63;100.00
62634;BME280;48704;50.534;6.442;2023-05-23T08:08:53;95911.28;;;10.53;100.00
62634;BME280;48704;50.534;6.442;2023-05-23T08:11:18;95910.75;;;10.31;100.00
62634;BME280;48704;50.534;6.442;2023-05-23T08:13:43;95919.34;;;10.51;100.00
62634;BME280;48704;50.534;6.442;2023-05-23T08:16:09;95929.31;;;10.76;100.00
62634;BME280;48704;50.534;6.442;2023-05-23T08:18:34;95926.72;;;10.63;100.00
62634;BME280;48704;50.534;6.442;2023-05-23T08:21:00;95931.13;;;10.46;100.00
62634;BME280;48704;50.534;6.442;2023-05-23T08:23:27;95920.88;;;10.52;100.00
62634;BME280;48704;50.534;6.442;2023-05-23T08:25:53;95928.59;;;10.57;100.00
62634;BME280;48704;50.534;6.442;2023-05-23T08:28:18;95934.41;;;10.78;100.00
62634;BME280;48704;50.534;6.442;2023-05-23T08:30:43;95927.47;;;10.31;100.00
62634;BME280;48704;50.534;6.442;2023-05-23T08:33:09;95932.31;;;10.63;100.00
62634;BME280;48704;50.534;6.442;2023-05-23T08:35:34;95939.09;;;10.71;100.00
62634;BME280;48704;50.534;6.442;2023-05-23T08:38:01;95936.63;;;10.74;100.00
62634;BME280;48704;50.534;6.442;2023-05-23T08:40:29;95935.59;;;10.44;100.00
62634;BME280;48704;50.534;6.442;2023-05-23T08:42:55;95942.84;;;10.59;100.00
62634;BME280;48704;50.534;6.442;2023-05-23T08:45:20;95942.28;;;10.79;100.00
62634;BME280;48704;50.534;6.442;2023-05-23T08:47:46;95942.75;;;10.78;100.00
62634;BME280;48704;50.534;6.442;2023-05-23T08:50:15;95941.94;;;10.95;100.00
62634;BME280;48704;50.534;6.442;2023-05-23T08:52:49;95933.84;;;10.64;100.00
62634;BME280;48704;50.534;6.442;2023-05-23T08:55:17;95937.59;;;10.52;100.00
62634;BME280;48704;50.534;6.442;2023-05-23T08:57:42;95946.13;;;10.49;100.00
62634;BME280;48704;50.534;6.442;2023-05-23T09:00:11;95949.34;;;10.98;100.00
62634;BME280;48704;50.534;6.442;2023-05-23T09:02:41;95943.47;;;10.54;100.00
62634;BME280;48704;50.534;6.442;2023-05-23T09:05:07;95943.81;;;10.47;100.00
62634;BME280;48704;50.534;6.442;2023-05-23T09:07:34;95947.56;;;10.35;100.00
62634;BME280;48704;50.534;6.442;2023-05-23T09:09:59;95950.06;;;10.24;100.00
62634;BME280;48704;50.534;6.442;2023-05-23T09:12:24;95955.50;;;10.69;100.00
62634;BME280;48704;50.534;6.442;2023-05-23T09:14:50;95956.94;;;10.98;100.00
62634;BME280;48704;50.534;6.442;2023-05-23T09:17:18;95946.22;;;10.73;100.00
62634;BME280;48704;50.534;6.442;2023-05-23T09:19:44;95955.47;;;10.79;100.00
62634;BME280;48704;50.534;6.442;2023-05-23T09:22:11;95954.09;;;10.74;100.00
62634;BME280;48704;50.534;6.442;2023-05-23T09:24:37;95956.69;;;10.87;100.00
62634;BME280;48704;50.534;6.442;2023-05-23T09:27:04;95954.97;;;10.89;100.00
62634;BME280;48704;50.534;6.442;2023-05-23T09:29:30;95955.06;;;10.71;100.00
62634;BME280;48704;50.534;6.442;2023-05-23T09:32:09;95954.31;;;10.61;100.00
62634;BME280;48704;50.534;6.442;2023-05-23T09:34:35;95952.16;;;10.47;100.00
62634;BME280;48704;50.534;6.442;2023-05-23T09:37:00;95961.13;;;10.51;100.00
62634;BME280;48704;50.534;6.442;2023-05-23T09:39:25;95962.38;;;10.50;100.00
62634;BME280;48704;50.534;6.442;2023-05-23T09:41:51;95963.75;;;10.55;100.00
62634;BME280;48704;50.534;6.442;2023-05-23T09:44:21;95956.84;;;10.32;100.00
62634;BME280;48704;50.534;6.442;2023-05-23T09:46:49;95955.84;;;10.62;100.00
62634;BME280;48704;50.534;6.442;2023-05-23T09:49:16;95959.16;;;10.85;100.00
62634;BME280;48704;50.534;6.442;2023-05-23T09:51:42;95959.88;;;10.61;100.00
62634;BME280;48704;50.534;6.442;2023-05-23T09:54:07;95952.91;;;10.57;100.00
62634;BME280;48704;50.534;6.442;2023-05-23T09:56:35;95952.72;;;10.69;100.00
62634;BME280;48704;50.534;6.442;2023-05-23T09:59:04;95958.31;;;10.69;100.00
62634;BME280;48704;50.534;6.442;2023-05-23T10:01:32;95960.66;;;10.95;100.00
62634;BME280;48704;50.534;6.442;2023-05-23T10:03:58;95962.59;;;10.80;100.00
62634;BME280;48704;50.534;6.442;2023-05-23T10:06:43;95959.50;;;10.78;100.00
62634;BME280;48704;50.534;6.442;2023-05-23T10:09:16;95962.69;;;11.27;100.00
62634;BME280;48704;50.534;6.442;2023-05-23T10:14:28;95966.31;;;11.66;100.00
62634;BME280;48704;50.534;6.442;2023-05-23T10:17:04;95958.06;;;11.72;100.00
62634;BME280;48704;50.534;6.442;2023-05-23T10:22:07;95965.16;;;11.25;100.00
62634;BME280;48704;50.534;6.442;2023-05-23T10:24:35;95969.66;;;10.48;100.00
62634;BME280;48704;50.534;6.442;2023-05-23T10:27:01;95977.84;;;10.42;100.00
62634;BME280;48704;50.534;6.442;2023-05-23T10:29:28;95970.31;;;10.06;100.00
62634;BME280;48704;50.534;6.442;2023-05-23T10:31:54;95975.56;;;9.86;100.00
62634;BME280;48704;50.534;6.442;2023-05-23T10:34:27;95981.94;;;10.23;100.00
62634;BME280;48704;50.534;6.442;2023-05-23T10:37:01;95982.38;;;10.30;100.00
62634;BME280;48704;50.534;6.442;2023-05-23T10:42:21;95989.38;;;11.19;100.00
62634;BME280;48704;50.534;6.442;2023-05-23T10:44:48;95992.22;;;11.67;100.00
62634;BME280;48704;50.534;6.442;2023-05-23T10:47:24;95986.41;;;12.18;100.00
62634;BME280;48704;50.534;6.442;2023-05-23T10:49:54;95981.69;;;13.13;100.00
62634;BME280;48704;50.534;6.442;2023-05-23T10:52:19;95984.22;;;12.66;100.00
62634;BME280;48704;50.534;6.442;2023-05-23T10:54:54;95981.03;;;13.53;100.00
62634;BME280;48704;50.534;6.442;2023-05-23T10:57:21;95981.63;;;13.97;100.00
62634;BME280;48704;50.534;6.442;2023-05-23T10:59:51;95980.91;;;13.12;100.00
62634;BME280;48704;50.534;6.442;2023-05-23T11:02:27;95982.94;;;13.26;100.00
62634;BME280;48704;50.534;6.442;2023-05-23T11:07:41;95992.44;;;12.85;100.00
62634;BME280;48704;50.534;6.442;2023-05-23T11:10:10;95993.81;;;12.07;100.00
62634;BME280;48704;50.534;6.442;2023-05-23T11:12:39;95998.56;;;11.91;100.00
62634;BME280;48704;50.534;6.442;2023-05-23T11:18:08;96009.03;;;11.25;100.00
62634;BME280;48704;50.534;6.442;2023-05-23T11:20:35;96007.94;;;10.89;100.00
62634;BME280;48704;50.534;6.442;2023-05-23T11:23:02;96012.56;;;11.34;100.00
62634;BME280;48704;50.534;6.442;2023-05-23T11:25:42;96008.66;;;11.08;100.00
62634;BME280;48704;50.534;6.442;2023-05-23T11:28:09;96012.34;;;12.19;100.00
62634;BME280;48704;50.534;6.442;2023-05-23T11:30:35;96011.09;;;12.20;100.00
62634;BME280;48704;50.534;6.442;2023-05-23T11:33:11;96017.94;;;12.33;100.00
62634;BME280;48704;50.534;6.442;2023-05-23T11:35:42;96020.72;;;12.19;100.00
62634;BME280;48704;50.534;6.442;2023-05-23T11:38:08;96018.44;;;11.60;100.00
62634;BME280;48704;50.534;6.442;2023-05-23T11:40:35;96015.03;;;11.89;100.00
62634;BME280;48704;50.534;6.442;2023-05-23T11:43:03;96016.69;;;11.96;100.00
62634;BME280;48704;50.534;6.442;2023-05-23T11:45:30;96021.44;;;13.31;100.00
62634;BME280;48704;50.534;6.442;2023-05-23T11:47:56;96018.00;;;13.77;100.00
62634;BME280;48704;50.534;6.442;2023-05-23T11:50:21;96012.59;;;12.59;100.00
62634;BME280;48704;50.534;6.442;2023-05-23T11:52:49;96024.53;;;13.04;100.00
62634;BME280;48704;50.534;6.442;2023-05-23T11:55:20;96028.88;;;13.05;100.00
62634;BME280;48704;50.534;6.442;2023-05-23T11:57:46;96036.00;;;12.09;100.00
62634;BME280;48704;50.534;6.442;2023-05-23T12:00:12;96030.13;;;13.04;100.00
62634;BME280;48704;50.534;6.442;2023-05-23T12:02:41;96026.56;;;13.18;100.00
62634;BME280;48704;50.534;6.442;2023-05-23T12:07:33;96023.56;;;12.78;100.00
62634;BME280;48704;50.534;6.442;2023-05-23T12:10:01;96015.84;;;13.31;100.00
62634;BME280;48704;50.534;6.442;2023-05-23T12:12:26;96015.78;;;14.01;100.00
62634;BME280;48704;50.534;6.442;2023-05-23T12:14:55;96025.88;;;13.93;100.00
62634;BME280;48704;50.534;6.442;2023-05-23T12:17:20;96021.84;;;12.95;100.00
62634;BME280;48704;50.534;6.442;2023-05-23T12:19:45;96024.03;;;13.70;100.00
62634;BME280;48704;50.534;6.442;2023-05-23T12:22:11;96023.00;;;13.88;100.00
62634;BME280;48704;50.534;6.442;2023-05-23T12:24:44;96020.09;;;13.12;100.00
62634;BME280;48704;50.534;6.442;2023-05-23T12:27:09;96021.06;;;12.80;100.00
62634;BME280;48704;50.534;6.442;2023-05-23T12:29:34;96024.66;;;12.27;100.00
62634;BME280;48704;50.534;6.442;2023-05-23T12:32:02;96021.06;;;12.50;100.00
62634;BME280;48704;50.534;6.442;2023-05-23T12:34:28;96028.78;;;11.45;100.00
62634;BME280;48704;50.534;6.442;2023-05-23T12:36:55;96032.28;;;11.55;100.00
62634;BME280;48704;50.534;6.442;2023-05-23T12:39:27;96035.31;;;11.09;100.00
62634;BME280;48704;50.534;6.442;2023-05-23T12:41:53;96039.94;;;11.12;100.00
62634;BME280;48704;50.534;6.442;2023-05-23T12:44:20;96036.47;;;11.17;100.00
62634;BME280;48704;50.534;6.442;2023-05-23T12:46:46;96032.72;;;11.29;100.00
62634;BME280;48704;50.534;6.442;2023-05-23T12:49:12;96039.16;;;11.45;100.00
62634;BME280;48704;50.534;6.442;2023-05-23T12:51:37;96052.31;;;11.86;100.00
62634;BME280;48704;50.534;6.442;2023-05-23T12:54:03;96041.53;;;12.18;100.00
62634;BME280;48704;50.534;6.442;2023-05-23T12:56:29;96045.09;;;11.37;100.00
62634;BME280;48704;50.534;6.442;2023-05-23T12:58:54;96046.09;;;11.16;100.00
62634;BME280;48704;50.534;6.442;2023-05-23T13:01:20;96045.44;;;11.30;100.00
62634;BME280;48704;50.534;6.442;2023-05-23T13:03:45;96044.16;;;11.64;100.00
62634;BME280;48704;50.534;6.442;2023-05-23T13:06:10;96040.34;;;11.53;100.00
62634;BME280;48704;50.534;6.442;2023-05-23T13:08:36;96040.63;;;11.31;100.00